Date,TemperatureHighF,TemperatureAvgF,TemperatureLowF,DewpointHighF,DewpointAvgF,DewpointLowF,HumidityHigh,HumidityAvg,HumidityLow,PressureMaxIn,PressureMinIn,WindSpeedMaxMPH,WindSpeedAvgMPH,GustSpeedMaxMPH,PrecipitationSumIn
2013-10-1,70,53,38,58,48,37,95,82,58,30.09,29.97,10,1,0,0.01
2013-10-2,72,57,43,60,51,42,96,83,58,30.09,29.98,15,2,0,0.01
2013-10-3,71,54,38,50,43,34,95,71,26,30.18,30.09,7,1,0,0.00
2013-10-4,73,61,51,64,57,48,95,87,69,30.11,30.02,9,1,0,0.68
2013-10-5,72,64,57,63,60,55,96,89,71,30.10,30.04,10,1,0,0.00
2013-10-6,67,61,54,62,58,53,95,89,82,30.08,29.99,19,3,0,0.12
2013-10-7,69,61,49,63,55,41,92,82,71,29.98,29.64,30,8,0,0.78
2013-10-8,59,49,36,43,40,34,92,73,48,30.41,29.98,12,2,0,0.00
2013-10-9,62,46,33,40,36,31,95,72,40,30.50,30.38,10,2,0,0.01
2013-10-10,57,48,37,41,36,32,92,68,40,30.38,30.21,7,1,0,0.00
2013-10-11,66,56,45,43,35,25,75,46,35,30.20,30.12,7,2,0,0.00
2013-10-12,69,54,39,52,45,36,90,73,49,30.34,30.16,10,3,0,0.00
2013-10-13,70,56,48,50,46,43,90,73,44,30.40,30.31,13,3,0,0.00
2013-10-14,66,54,45,53,48,42,93,82,64,30.36,30.26,7,1,0,0.02
2013-10-15,68,59,51,55,51,49,93,78,58,30.30,30.11,12,2,0,0.01
2013-10-16,62,57,52,52,47,29,84,69,37,30.10,29.88,15,3,0,0.00
2013-10-17,67,59,51,57,49,42,92,72,42,29.90,29.59,13,3,0,0.13
2013-10-18,61,51,40,57,42,36,91,73,49,29.96,29.60,16,5,0,0.04
2013-10-19,60,47,35,45,38,33,93,73,41,29.99,29.74,18,3,0,0.04
2013-10-20,52,45,38,44,36,33,85,71,50,30.07,29.74,17,4,0,0.00
2013-10-21,61,49,34,38,36,32,92,64,40,30.15,29.93,19,4,0,0.00
2013-10-22,52,46,31,45,38,29,90,75,61,29.93,29.75,17,3,0,0.04
2013-10-23,45,36,29,34,31,27,92,82,57,29.85,29.68,7,1,0,0.04
2013-10-24,43,37,30,32,28,25,90,72,52,29.98,29.79,14,4,0,0.01
2013-10-25,42,36,32,33,30,29,91,79,62,30.21,29.98,13,3,0,0.04
2013-10-26,46,39,31,31,27,24,90,64,43,30.21,29.88,21,5,0,0.00
2013-10-27,44,40,36,33,30,27,86,71,52,30.13,29.85,13,4,0,0.02
2013-10-28,46,38,26,34,30,23,86,72,61,30.39,30.11,16,2,0,0.00
2013-10-29,43,34,26,26,22,17,88,65,35,30.48,30.38,8,1,0,0.00
2013-10-30,54,41,32,40,34,24,91,77,55,30.37,30.23,6,1,0,0.03
2013-10-31,59,48,32,55,45,30,96,89,80,30.26,29.68,27,5,0,0.50